Flight Track Log - Related Links

Times and Time Zones

All times are in EDT time to prevent confusion due to time zone crossing. See the N960DL flight status page for this flight to view local times or setup timezone preferences in your user account.

Time Position Orientation Groundspeed Altitude Reporting Facility
EDT Latitude Longitude Course Direction KTS MPH feet Rate Location/Type
Fri 11:13:33 PM 33.6333 -84.3833 53° Northeast 170 196 2,600  Level Atlanta TRACON
Fri 11:14:33 PM 33.6333 -84.3167 90° East 242 278 4,600 2,350 Climbing Atlanta TRACON
Fri 11:15:00 PM 33.8676 -84.1377 54° Northeast  Level Estimated
Fri 11:15:33 PM 33.6167 -84.2333 103° East 269 310 7,300  Level Atlanta TRACON
Fri 11:16:00 PM 33.8674 -84.0036 90° East  Level FlightAware Approximate
Fri 11:17:00 PM 33.8670 -83.8695 90° East  Level FlightAware Approximate
Fri 11:17:44 PM 33.6858 -84.0514 65° Northeast 287 330 10,200  Level Atlanta Center
Fri 11:18:00 PM 33.9452 -83.7740 53° Northeast  Level Estimated
Fri 11:18:44 PM 33.7525 -83.9564 50° Northeast 329 379 12,200  Level Atlanta Center
Fri 11:19:44 PM 33.8275 -83.8564 48° Northeast 374 430 14,800 2,550 Climbing Atlanta Center
Fri 11:20:44 PM 33.9003 -83.7561 49° Northeast 393 452 17,300 2,150 Climbing Atlanta Center
Fri 11:21:44 PM 33.9753 -83.6431 51° Northeast 409 471 19,100 1,850 Climbing Atlanta Center
Fri 11:22:44 PM 34.0478 -83.5247 53° Northeast 430 495 21,000 1,850 Climbing Atlanta Center
Fri 11:23:44 PM 34.1225 -83.4039 53° Northeast 443 510 22,800 1,450 Climbing Atlanta Center
Fri 11:24:44 PM 34.1989 -83.2828 53° Northeast 451 519 23,900 1,450 Climbing Atlanta Center
Fri 11:25:44 PM 34.2753 -83.1589 53° Northeast 451 519 25,700 1,750 Climbing Atlanta Center
Fri 11:26:44 PM 34.3597 -83.0247 53° Northeast 458 527 27,400 1,600 Climbing Atlanta Center
Fri 11:27:44 PM 34.4381 -82.9003 53° Northeast 458 527 28,900 1,350 Climbing Atlanta Center
Fri 11:28:44 PM 34.5161 -82.7733 53° Northeast 458 527 30,100 1,200 Climbing Atlanta Center
Fri 11:29:44 PM 34.5897 -82.6458 55° Northeast 463 533 31,300 1,300 Climbing Atlanta Center
Fri 11:30:44 PM 34.6719 -82.5258 50° Northeast 457 526 32,700 1,000 Climbing Atlanta Center
Fri 11:31:44 PM 34.7475 -82.4006 54° Northeast 457 526 33,300 650 Climbing Atlanta Center
Fri 11:32:44 PM 34.8250 -82.2725 54° Northeast 457 526 34,000 800 Climbing Atlanta Center
Fri 11:33:44 PM 34.9025 -82.1444 54° Northeast 462 532 34,900 500 Climbing Atlanta Center
Fri 11:34:44 PM 34.9736 -82.0311 53° Northeast 456 525 35,000 50 Climbing Atlanta Center
Fri 11:35:44 PM 35.0528 -81.8922 55° Northeast 467 537 35,000  Level Atlanta Center
Fri 11:36:44 PM 35.1253 -81.7558 57° Northeast 462 532 35,000  Level Atlanta Center
Fri 11:37:44 PM 35.1917 -81.6269 58° Northeast 462 532 35,000  Level Atlanta Center
Fri 11:38:44 PM 35.2600 -81.4928 58° Northeast 463 533 35,000  Level Atlanta Center
Fri 11:39:44 PM 35.3303 -81.3631 56° Northeast 458 527 35,000  Level Atlanta Center
Fri 11:40:44 PM 35.3961 -81.2286 59° Northeast 458 527 35,000  Level Atlanta Center
Fri 11:41:44 PM 35.4658 -81.0911 58° Northeast 464 534 35,000  Level Atlanta Center
Fri 11:42:44 PM 35.5356 -80.9583 57° Northeast 459 528 35,000  Level Atlanta Center
Fri 11:43:44 PM 35.6053 -80.8306 56° Northeast 454 522 35,000  Level Atlanta Center
Fri 11:44:44 PM 35.6750 -80.7000 57° Northeast 449 517 35,000  Level Atlanta Center
Fri 11:45:44 PM 35.7422 -80.5669 58° Northeast 449 517 35,000  Level Atlanta Center
Fri 11:48:06 PM 35.9025 -80.2539 58° Northeast 450 518 35,000  Level Washington Center
Fri 11:49:05 PM 35.9681 -80.1217 58° Northeast 450 518 35,000  Level Washington Center
Fri 11:50:05 PM 36.0286 -80.0097 56° Northeast 445 512 35,000  Level Washington Center
Fri 11:51:06 PM 36.1000 -79.8825 55° Northeast 440 506 35,000  Level Washington Center
Fri 11:52:05 PM 36.1714 -79.7525 56° Northeast 455 524 35,000  Level Washington Center
Fri 11:53:04 PM 36.2514 -79.6100 55° Northeast 449 517 35,000  Level Washington Center
Fri 11:54:05 PM 36.3156 -79.4947 55° Northeast 449 517 35,000  Level Washington Center
Fri 11:55:52 PM 36.4419 -79.2608 56° Northeast 449 517 35,000  Level Washington Center
Fri 11:56:52 PM 36.5167 -79.1353 53° Northeast 449 517 35,000 -900 Level Washington Center
Fri 11:57:52 PM 36.5981 -78.9967 54° Northeast 449 517 33,200 -2,262 Descending Washington Center
Fri 11:58:54 PM 36.6664 -78.8650 57° Northeast 449 517 30,400 -2,118 Descending Washington Center
Fri 11:59:51 PM 36.7406 -78.7386 54° Northeast 455 524 29,000 -706 Descending Washington Center
Sat 12:00:53 AM 36.8150 -78.6067 55° Northeast 455 524 29,000  Level Washington Center
Sat 12:01:52 AM 36.9069 -78.5142 39° Northeast 460 529 29,000  Level Washington Center
Sat 12:02:52 AM 37.0094 -78.4192 36° Northeast 455 524 29,000  Level Washington Center
Sat 12:03:52 AM 37.1158 -78.3242 35° Northeast 460 529 29,000  Level Washington Center
Sat 12:04:53 AM 37.2308 -78.2186 36° Northeast 460 529 29,000  Level Washington Center
Sat 12:05:52 AM 37.3225 -78.1356 36° Northeast 454 522 29,000  Level Washington Center
Sat 12:06:52 AM 37.4247 -78.0369 37° Northeast 449 517 29,000  Level Washington Center
Sat 12:07:54 AM 37.5286 -77.9433 36° Northeast 449 517 29,000 -1,450 Level Washington Center
Sat 12:08:52 AM 37.6306 -77.8469 37° Northeast 454 522 26,100 -2,821 Descending Washington Center
Sat 12:09:51 AM 37.7325 -77.7503 37° Northeast 454 522 23,500 -2,678 Descending Washington Center
Sat 12:10:53 AM 37.8300 -77.6583 37° Northeast 454 522 20,700 -2,000 Descending Washington Center
Sat 12:11:54 AM 37.9275 -77.5661 37° Northeast 443 510 19,400 -1,100 Descending Washington Center
Sat 12:12:53 AM 38.0250 -77.4764 36° Northeast 438 504 18,500 -756 Descending Washington Center
Sat 12:13:53 AM 38.1158 -77.3944 35° Northeast 424 488 17,900 -1,210 Descending Washington Center
Sat 12:14:52 AM 38.2047 -77.3092 37° Northeast 414 476 16,100 -1,438 Descending Washington Center
Sat 12:15:54 AM 38.2956 -77.2242 36° Northeast 409 471 15,000 -655 Descending Washington Center
Sat 12:16:51 AM 38.3906 -77.1308 38° Northeast 403 464 14,800 -974 Descending Washington Center
Sat 12:17:51 AM 38.4689 -77.0369 43° Northeast 390 449 13,100 -1,561 Descending Washington Center
Sat 12:18:54 AM 38.5408 -76.9533 42° Northeast 373 429 11,600 -1,289 Descending Washington Center
Sat 12:19:52 AM 38.6064 -76.8722 44° Northeast 345 397 10,500 -1,017 Descending Washington Center
Sat 12:20:52 AM 38.6697 -76.7961 43° Northeast 319 367 9,600 -950 Descending Washington Center
Sat 12:21:52 AM 38.7225 -76.7144 50° Northeast 303 349 8,600 -1,190 Descending Washington Center
Sat 12:22:53 AM 38.7836 -76.6569 36° Northeast 269 310 7,200 -1,295 Descending Washington Center
Sat 12:24:48 AM 38.9333 -76.7167 343° North 296 341 4,800 -1,166 Descending Potomac TRACON
Sat 12:25:48 AM 39.0000 -76.7500 339° North 274 315 3,800 -1,000 Descending Potomac TRACON
Sat 12:26:42 AM 39.0667 -76.7667 349° North 248 285 2,900 -947 Descending Potomac TRACON
Sat 12:27:42 AM 39.1333 -76.8000 339° North 222 255 2,000 -667 Descending Potomac TRACON
Sat 12:28:48 AM 39.1833 -76.7833 14° North 188 216 1,500 -591 Descending Potomac TRACON
Sat 12:29:54 AM 39.1833 -76.7167 90° East 154 177 700 -727 Descending Potomac TRACON
Sat 12:31:00 AM 39.1667 -76.6667 100° East  Level FlightAware Approximate
Sat 12:38:00 AM 39.1754 -76.6683 100° East  Level Estimated
Sat 12:39:00 AM 39.1754 -76.6683 100° East  Level Estimated
Sat 12:40:00 AM 39.1754 -76.6683 100° East  Level Estimated
Sat 12:41:00 AM 39.1754 -76.6683 100° East  Level Estimated

Login

Don't have an account? Register now (free) for customized features, flight alerts, and more!